createdAt,value
2018-10-02T00:00:57.896Z,0.63
2018-10-02T00:03:27.100Z,0.70
2018-10-02T00:05:56.335Z,0.60
2018-10-02T00:08:25.537Z,0.57
2018-10-02T00:11:00.640Z,0.70
2018-10-02T00:13:34.964Z,0.63
2018-10-02T00:16:04.217Z,0.70
2018-10-02T00:18:33.419Z,0.70
2018-10-02T00:21:02.689Z,0.60
2018-10-02T00:23:31.913Z,0.50
2018-10-02T00:26:01.111Z,0.40
2018-10-02T00:28:30.461Z,0.70
2018-10-02T00:30:59.673Z,0.60
2018-10-02T00:33:28.915Z,0.60
2018-10-02T00:35:58.117Z,0.70
2018-10-02T00:38:27.311Z,0.57
2018-10-02T00:40:56.513Z,0.70
2018-10-02T00:43:25.732Z,0.50
2018-10-02T00:45:54.931Z,0.70
2018-10-02T00:48:24.128Z,0.60
2018-10-02T00:50:53.375Z,0.80
2018-10-02T00:53:22.772Z,0.70
2018-10-02T00:55:52.079Z,0.60
2018-10-02T00:58:21.302Z,0.57
2018-10-02T01:00:50.546Z,0.67
2018-10-02T01:03:19.903Z,0.70
2018-10-02T01:05:49.113Z,0.50
2018-10-02T01:08:18.338Z,0.70
2018-10-02T01:10:47.619Z,0.83
2018-10-02T01:13:16.896Z,0.60
2018-10-02T01:15:46.094Z,0.50
2018-10-02T01:18:15.292Z,0.73
2018-10-02T01:20:44.496Z,0.60
2018-10-02T01:23:13.797Z,0.70
2018-10-02T01:25:43.053Z,0.60
2018-10-02T01:28:12.557Z,0.60
2018-10-02T01:30:48.246Z,0.70
2018-10-02T01:33:17.521Z,0.67
2018-10-02T01:35:46.753Z,0.67
2018-10-02T01:38:15.971Z,0.80
2018-10-02T01:40:45.216Z,0.70
2018-10-02T01:43:14.516Z,0.70
2018-10-02T01:45:43.750Z,0.63
2018-10-02T01:48:12.969Z,0.60
2018-10-02T01:50:42.168Z,0.90
2018-10-02T01:53:11.438Z,0.80
2018-10-02T01:55:40.645Z,0.60
2018-10-02T01:58:09.841Z,0.53
2018-10-02T02:00:39.924Z,0.60
2018-10-02T02:03:09.237Z,0.60
2018-10-02T02:05:38.456Z,0.60
2018-10-02T02:08:07.933Z,0.60
2018-10-02T02:10:37.218Z,0.67
2018-10-02T02:13:06.532Z,0.70
2018-10-02T02:15:35.757Z,0.67
2018-10-02T02:18:05.985Z,0.77
2018-10-02T02:20:35.184Z,0.80
2018-10-02T02:23:04.412Z,0.50
2018-10-02T02:25:33.658Z,0.50
2018-10-02T02:28:02.950Z,0.43
2018-10-02T02:30:32.178Z,0.60
2018-10-02T02:33:01.550Z,0.70
2018-10-02T02:35:30.733Z,0.70
2018-10-02T02:37:59.946Z,0.57
2018-10-02T02:40:29.184Z,0.60
2018-10-02T02:42:58.410Z,0.60
2018-10-02T02:45:27.612Z,0.70
2018-10-02T02:48:01.938Z,0.60
2018-10-02T02:50:36.489Z,0.57
2018-10-02T02:53:10.118Z,0.60
2018-10-02T02:55:39.342Z,0.80
2018-10-02T02:58:08.610Z,0.60
2018-10-02T03:00:37.839Z,0.63
2018-10-02T03:03:07.492Z,0.47
2018-10-02T03:05:36.721Z,0.50
2018-10-02T03:08:05.991Z,0.50
2018-10-02T03:10:35.217Z,0.50
2018-10-02T03:13:04.509Z,0.60
2018-10-02T03:15:33.712Z,0.60
2018-10-02T03:18:02.920Z,0.60
2018-10-02T03:20:32.140Z,0.50
2018-10-02T03:23:01.381Z,0.60
2018-10-02T03:25:30.602Z,0.70
2018-10-02T03:27:59.812Z,0.30
2018-10-02T03:30:29.102Z,0.63
2018-10-02T03:32:58.352Z,0.60
2018-10-02T03:35:27.603Z,0.53
2018-10-02T03:37:56.862Z,0.63
2018-10-02T03:40:26.041Z,0.80
2018-10-02T03:42:55.364Z,0.60
2018-10-02T03:45:24.573Z,0.50
2018-10-02T03:47:53.773Z,0.40
2018-10-02T03:50:22.979Z,0.50
2018-10-02T03:52:52.314Z,0.50
2018-10-02T03:55:21.500Z,0.60
2018-10-02T03:57:50.703Z,0.40
2018-10-02T04:00:19.897Z,0.43
2018-10-02T04:02:49.269Z,0.50
2018-10-02T04:05:18.510Z,0.40
2018-10-02T04:07:47.726Z,0.60
2018-10-02T04:10:16.922Z,0.40
2018-10-02T04:12:46.133Z,0.40
2018-10-02T04:15:15.460Z,0.50
2018-10-02T04:17:44.630Z,0.43
2018-10-02T04:20:13.825Z,0.63
2018-10-02T04:22:43.159Z,0.50
2018-10-02T04:25:12.403Z,0.50
2018-10-02T04:27:41.756Z,0.60
2018-10-02T04:30:11.123Z,0.43
2018-10-02T04:32:40.555Z,0.60
2018-10-02T04:35:09.796Z,0.60
2018-10-02T04:37:39.400Z,0.50
2018-10-02T04:40:08.610Z,0.80
2018-10-02T04:42:37.964Z,0.50
2018-10-02T04:45:07.541Z,0.90
2018-10-02T04:47:36.781Z,0.80
2018-10-02T04:50:06.012Z,0.43
2018-10-02T04:52:35.302Z,0.60
2018-10-02T04:55:04.730Z,0.60
2018-10-02T04:57:34.006Z,0.60
2018-10-02T05:00:03.281Z,0.50
2018-10-02T05:02:33.572Z,0.63
2018-10-02T05:05:02.859Z,0.90
2018-10-02T05:07:32.178Z,0.70
2018-10-02T05:10:01.545Z,0.50
2018-10-02T05:12:30.960Z,0.90
2018-10-02T05:15:00.213Z,0.83
2018-10-02T05:17:29.484Z,0.70
2018-10-02T05:19:58.856Z,0.70
2018-10-02T05:22:28.172Z,0.60
2018-10-02T05:24:57.436Z,0.53
2018-10-02T05:27:26.755Z,0.77
2018-10-02T05:29:56.782Z,0.80
2018-10-02T05:32:26.054Z,0.67
2018-10-02T05:34:55.433Z,0.70
2018-10-02T05:37:24.735Z,0.53
2018-10-02T05:39:54.021Z,0.80
2018-10-02T05:42:23.496Z,0.50
2018-10-02T05:44:52.769Z,0.70
2018-10-02T05:47:22.129Z,0.60
2018-10-02T05:49:51.641Z,0.47
2018-10-02T05:52:21.229Z,0.53
2018-10-02T05:54:50.537Z,0.60
2018-10-02T05:57:20.204Z,0.50
2018-10-02T05:59:49.509Z,0.70
2018-10-02T06:02:21.174Z,0.43
2018-10-02T06:04:50.467Z,0.73
2018-10-02T06:07:19.685Z,0.50
2018-10-02T06:09:48.969Z,0.50
2018-10-02T06:12:18.687Z,0.70
2018-10-02T06:14:47.986Z,0.57
2018-10-02T06:17:18.056Z,0.60
2018-10-02T06:19:47.369Z,0.87
2018-10-02T06:22:16.754Z,0.73
2018-10-02T06:24:46.166Z,0.40
2018-10-02T06:27:15.513Z,0.60
2018-10-02T06:29:44.816Z,0.40
2018-10-02T06:32:14.321Z,0.50
2018-10-02T06:34:43.608Z,0.30
2018-10-02T06:37:13.037Z,0.50
2018-10-02T06:39:42.442Z,0.40
2018-10-02T06:42:11.828Z,0.50
2018-10-02T06:44:41.205Z,0.70
2018-10-02T06:47:10.363Z,0.63
2018-10-02T06:49:39.687Z,0.53
2018-10-02T06:52:09.209Z,0.43
2018-10-02T06:54:38.296Z,0.50
2018-10-02T06:57:07.735Z,0.60
2018-10-02T06:59:36.905Z,0.40
2018-10-02T07:02:06.223Z,0.60
2018-10-02T07:04:35.477Z,0.40
2018-10-02T07:07:04.728Z,0.63
2018-10-02T07:09:34.005Z,0.40
2018-10-02T07:12:03.336Z,0.50
2018-10-02T07:14:32.709Z,0.50
2018-10-02T07:17:02.034Z,0.50
2018-10-02T07:19:31.304Z,0.50
2018-10-02T07:22:00.763Z,0.50
2018-10-02T07:24:30.034Z,0.57
2018-10-02T07:26:59.463Z,0.50
2018-10-02T07:29:28.642Z,0.50
2018-10-02T07:31:58.014Z,0.50
2018-10-02T07:34:27.311Z,0.50
2018-10-02T07:36:56.566Z,0.60
2018-10-02T07:39:25.893Z,0.40
2018-10-02T07:41:55.299Z,0.40
2018-10-02T07:44:24.620Z,0.50
2018-10-02T07:46:53.832Z,0.40
2018-10-02T07:49:23.140Z,0.60
2018-10-02T07:51:52.452Z,0.53
2018-10-02T07:54:21.731Z,0.50
2018-10-02T07:56:51.042Z,0.50
2018-10-02T07:59:20.280Z,0.43
2018-10-02T08:01:49.580Z,0.60
2018-10-02T08:04:18.854Z,0.50
2018-10-02T08:06:48.115Z,0.60
2018-10-02T08:09:17.325Z,0.40
2018-10-02T08:11:46.663Z,0.60
2018-10-02T08:14:15.952Z,0.40
2018-10-02T08:16:45.217Z,0.40
2018-10-02T08:19:14.565Z,0.40
2018-10-02T08:21:43.936Z,0.50
2018-10-02T08:24:13.185Z,0.40
2018-10-02T08:26:42.568Z,0.50
2018-10-02T08:29:11.739Z,0.30
2018-10-02T08:31:41.065Z,0.50
2018-10-02T08:34:10.356Z,0.43
2018-10-02T08:36:39.822Z,0.50
2018-10-02T08:39:10.478Z,0.43
2018-10-02T08:41:40.190Z,0.50
2018-10-02T08:44:11.779Z,0.27
2018-10-02T08:46:41.117Z,0.40
2018-10-02T08:49:10.461Z,0.50
2018-10-02T08:51:39.982Z,0.70
2018-10-02T08:54:09.344Z,0.40
2018-10-02T08:56:38.624Z,0.53
2018-10-02T08:59:08.837Z,0.43
2018-10-02T09:01:38.127Z,0.40
2018-10-02T09:04:07.359Z,0.30
2018-10-02T09:06:36.686Z,0.37
2018-10-02T09:09:09.458Z,0.50
2018-10-02T09:11:38.783Z,0.30
2018-10-02T09:14:08.093Z,0.33
2018-10-02T09:16:37.636Z,0.40
2018-10-02T09:19:07.698Z,0.40
2018-10-02T09:21:37.128Z,0.40
2018-10-02T09:24:06.668Z,0.30
2018-10-02T09:26:35.959Z,0.20
2018-10-02T09:29:05.197Z,0.50
2018-10-02T09:31:39.812Z,0.40
2018-10-02T09:34:14.326Z,0.40
2018-10-02T09:36:48.578Z,0.40
2018-10-02T09:39:22.856Z,0.50
2018-10-02T09:41:57.202Z,0.50
2018-10-02T09:44:26.514Z,0.37
2018-10-02T09:46:55.759Z,0.40
2018-10-02T09:49:25.009Z,0.40
2018-10-02T09:51:54.477Z,0.50
2018-10-02T09:54:23.758Z,0.40
2018-10-02T09:56:53.131Z,0.40
2018-10-02T09:59:22.600Z,0.50
2018-10-02T10:01:57.297Z,0.30
2018-10-02T10:04:26.736Z,0.60
2018-10-02T10:06:55.949Z,0.60
2018-10-02T10:09:25.215Z,0.70
2018-10-02T10:11:54.536Z,0.60
2018-10-02T10:14:23.804Z,0.40
2018-10-02T10:16:53.053Z,0.60
2018-10-02T10:19:22.502Z,0.60
2018-10-02T10:21:51.833Z,0.73
2018-10-02T10:24:21.145Z,0.80
2018-10-02T10:26:50.465Z,0.80
2018-10-02T10:29:19.733Z,0.90
2018-10-02T10:31:49.143Z,1.00
2018-10-02T10:34:18.540Z,1.20
2018-10-02T10:36:47.814Z,1.60
2018-10-02T10:39:17.168Z,1.50
2018-10-02T10:41:46.598Z,1.30
2018-10-02T10:44:15.925Z,1.20
2018-10-02T10:46:45.236Z,1.47
2018-10-02T10:49:14.448Z,1.50
2018-10-02T10:51:43.817Z,1.30
2018-10-02T10:54:13.044Z,1.20
2018-10-02T10:56:42.370Z,1.40
2018-10-02T10:59:11.839Z,1.20
2018-10-02T11:01:41.455Z,1.03
2018-10-02T11:04:10.725Z,1.20
2018-10-02T11:06:39.956Z,1.13
2018-10-02T11:09:10.745Z,1.23
2018-10-02T11:11:40.092Z,1.33
2018-10-02T11:14:09.399Z,1.30
2018-10-02T11:16:38.814Z,1.37
2018-10-02T11:19:08.053Z,0.93
2018-10-02T11:21:37.471Z,1.10
2018-10-02T11:24:06.830Z,1.00
2018-10-02T11:26:36.051Z,0.80
2018-10-02T11:29:05.303Z,0.97
2018-10-02T11:31:34.655Z,1.10
2018-10-02T11:34:03.986Z,1.27
2018-10-02T11:36:33.717Z,1.07
2018-10-02T11:39:03.066Z,1.10
2018-10-02T11:41:32.460Z,0.90
2018-10-02T11:44:01.827Z,0.80
2018-10-02T11:46:31.012Z,0.80
2018-10-02T11:49:00.297Z,1.40
2018-10-02T11:51:29.596Z,0.87
2018-10-02T11:53:58.926Z,1.00
2018-10-02T11:56:28.213Z,0.87
2018-10-02T11:58:57.573Z,1.00
2018-10-02T12:01:26.948Z,0.90
2018-10-02T12:03:56.248Z,1.10
2018-10-02T12:06:25.522Z,0.90
2018-10-02T12:08:55.116Z,0.73
2018-10-02T12:11:24.401Z,1.00
2018-10-02T12:13:53.669Z,0.70
2018-10-02T12:16:22.929Z,1.20
2018-10-02T12:18:52.237Z,0.87
2018-10-02T12:21:21.628Z,1.10
2018-10-02T12:23:50.924Z,1.00
2018-10-02T12:26:20.239Z,0.90
2018-10-02T12:28:49.531Z,1.00
2018-10-02T12:31:18.945Z,0.70
2018-10-02T12:33:48.113Z,0.70
2018-10-02T12:36:17.352Z,0.73
2018-10-02T12:38:46.560Z,1.00
2018-10-02T12:41:15.821Z,0.93
2018-10-02T12:43:45.050Z,1.00
2018-10-02T12:46:14.427Z,0.90
2018-10-02T12:48:43.647Z,0.77
2018-10-02T12:51:13.009Z,0.80
2018-10-02T12:53:42.409Z,0.87
2018-10-02T12:56:11.676Z,0.77
2018-10-02T12:58:41.033Z,0.77
2018-10-02T13:01:10.420Z,0.50
2018-10-02T13:03:40.146Z,0.90
2018-10-02T13:06:09.397Z,0.93
2018-10-02T13:08:38.616Z,0.97
2018-10-02T13:11:07.813Z,0.90
2018-10-02T13:13:37.729Z,0.90
2018-10-02T13:16:06.951Z,0.80
2018-10-02T13:18:36.200Z,0.67
2018-10-02T13:21:05.529Z,0.67
2018-10-02T13:23:34.955Z,0.87
2018-10-02T13:26:05.260Z,0.70
2018-10-02T13:28:34.561Z,0.87
2018-10-02T13:31:03.763Z,0.67
2018-10-02T13:33:33.036Z,0.90
2018-10-02T13:36:02.559Z,0.80
2018-10-02T13:38:31.789Z,0.70
2018-10-02T13:41:01.040Z,0.80
2018-10-02T13:43:30.284Z,0.90
2018-10-02T13:45:59.573Z,0.80
2018-10-02T13:48:28.824Z,0.70
2018-10-02T13:50:58.096Z,0.70
2018-10-02T13:53:27.465Z,0.70
2018-10-02T13:55:56.699Z,0.70
2018-10-02T13:58:26.009Z,0.70
2018-10-02T14:00:55.266Z,0.80
2018-10-02T14:03:24.517Z,0.80
2018-10-02T14:05:53.785Z,0.40
2018-10-02T14:08:23.332Z,0.70
2018-10-02T14:10:52.788Z,0.80
2018-10-02T14:13:22.049Z,0.73
2018-10-02T14:15:51.305Z,0.60
2018-10-02T14:18:20.577Z,0.90
2018-10-02T14:20:49.805Z,0.80
2018-10-02T14:23:19.245Z,0.70
2018-10-02T14:25:48.475Z,0.73
2018-10-02T14:28:17.792Z,0.70
2018-10-02T14:30:47.006Z,0.57
2018-10-02T14:33:16.430Z,0.80
2018-10-02T14:35:45.692Z,0.60
2018-10-02T14:38:14.965Z,0.70
2018-10-02T14:40:44.303Z,0.70
2018-10-02T14:43:13.720Z,0.70
2018-10-02T14:45:42.945Z,0.60
2018-10-02T14:48:12.169Z,0.50
2018-10-02T14:50:41.800Z,0.70
2018-10-02T14:53:11.023Z,0.80
2018-10-02T14:55:40.247Z,0.70
2018-10-02T14:58:09.549Z,0.67
2018-10-02T15:00:38.801Z,0.43
2018-10-02T15:03:08.046Z,0.60
2018-10-02T15:05:37.286Z,0.70
2018-10-02T15:08:06.505Z,1.03
2018-10-02T15:10:35.706Z,1.17
2018-10-02T15:13:05.226Z,1.53
2018-10-02T15:15:35.237Z,1.00
2018-10-02T15:18:04.586Z,1.40
2018-10-02T15:20:33.776Z,1.90
2018-10-02T15:23:03.496Z,1.40
2018-10-02T15:25:32.708Z,1.07
2018-10-02T15:28:01.974Z,1.33
2018-10-02T15:30:31.278Z,1.30
2018-10-02T15:33:00.598Z,1.50
2018-10-02T15:35:29.903Z,1.60
2018-10-02T15:37:59.184Z,1.20
2018-10-02T15:40:28.426Z,1.30
2018-10-02T15:42:57.710Z,1.50
2018-10-02T15:45:27.025Z,0.97
2018-10-02T15:47:56.272Z,1.50
2018-10-02T15:50:25.480Z,1.30
2018-10-02T15:52:54.777Z,1.60
2018-10-02T15:55:24.038Z,0.90
2018-10-02T15:57:53.273Z,1.30
2018-10-02T16:00:22.526Z,0.90
2018-10-02T16:02:51.810Z,0.80
2018-10-02T16:05:21.121Z,0.90
2018-10-02T16:07:50.567Z,1.27
2018-10-02T16:10:19.824Z,1.03
2018-10-02T16:12:49.076Z,1.10
2018-10-02T16:15:18.273Z,0.80
2018-10-02T16:17:47.605Z,0.90
2018-10-02T16:20:16.826Z,0.97
2018-10-02T16:22:46.073Z,0.80
2018-10-02T16:25:15.300Z,1.03
2018-10-02T16:27:44.582Z,1.00
2018-10-02T16:30:13.862Z,0.83
2018-10-02T16:32:43.163Z,0.97
2018-10-02T16:35:12.426Z,0.70
2018-10-02T16:37:41.675Z,1.07
2018-10-02T16:40:10.864Z,1.03
2018-10-02T16:42:40.205Z,0.77
2018-10-02T16:45:09.474Z,0.73
2018-10-02T16:47:38.743Z,1.17
2018-10-02T16:50:08.097Z,0.80
2018-10-02T16:52:37.352Z,1.07
2018-10-02T16:55:06.960Z,0.80
2018-10-02T16:57:36.210Z,0.70
2018-10-02T17:00:06.380Z,1.03
2018-10-02T17:02:35.728Z,1.20
2018-10-02T17:05:04.976Z,1.30
2018-10-02T17:07:34.205Z,2.63
2018-10-02T17:10:03.468Z,12.20
2018-10-02T17:12:32.807Z,19.67
2018-10-02T17:15:02.070Z,28.30
2018-10-02T17:17:31.324Z,33.97
2018-10-02T17:20:00.567Z,34.67
2018-10-02T17:22:29.987Z,37.37
2018-10-02T17:24:59.238Z,33.03
2018-10-02T17:27:28.524Z,32.10
2018-10-02T17:29:57.905Z,30.77
2018-10-02T17:32:27.330Z,30.07
2018-10-02T17:34:56.589Z,29.23
2018-10-02T17:37:25.831Z,30.17
2018-10-02T17:39:55.153Z,28.30
2018-10-02T17:42:24.437Z,27.37
2018-10-02T17:44:53.675Z,26.80
2018-10-02T17:47:23.000Z,26.23
2018-10-02T17:49:52.270Z,25.97
2018-10-02T17:52:21.642Z,27.27
2018-10-02T17:54:51.013Z,24.73
2018-10-02T17:57:20.263Z,24.40
2018-10-02T17:59:49.592Z,25.37
2018-10-02T18:02:18.967Z,23.40
2018-10-02T18:04:48.924Z,22.57
2018-10-02T18:07:18.189Z,23.23
2018-10-02T18:09:47.472Z,23.57
2018-10-02T18:12:16.779Z,22.20
2018-10-02T18:14:46.010Z,20.90
2018-10-02T18:17:15.280Z,21.20
2018-10-02T18:19:44.555Z,19.93
2018-10-02T18:22:13.856Z,19.67
2018-10-02T18:24:43.097Z,19.13
2018-10-02T18:27:12.603Z,20.03
2018-10-02T18:29:41.833Z,18.37
2018-10-02T18:32:11.124Z,17.10
2018-10-02T18:34:40.482Z,17.33
2018-10-02T18:37:10.036Z,17.73
2018-10-02T18:39:39.289Z,17.73
2018-10-02T18:42:08.660Z,16.90
2018-10-02T18:44:37.923Z,16.30
2018-10-02T18:47:07.233Z,15.93
2018-10-02T18:49:36.469Z,15.97
2018-10-02T18:52:05.792Z,15.57
2018-10-02T18:54:35.002Z,15.73
2018-10-02T18:57:04.363Z,14.40
2018-10-02T18:59:34.109Z,14.27
2018-10-02T19:02:03.413Z,15.07
2018-10-02T19:04:32.677Z,13.50
2018-10-02T19:07:01.920Z,14.10
2018-10-02T19:09:31.207Z,13.90
2018-10-02T19:12:05.581Z,13.30
2018-10-02T19:14:34.801Z,13.20
2018-10-02T19:17:04.106Z,14.13
2018-10-02T19:19:38.442Z,12.83
2018-10-02T19:22:07.787Z,12.83
2018-10-02T19:24:37.005Z,12.90
2018-10-02T19:27:06.214Z,12.60
2018-10-02T19:29:35.536Z,12.17
2018-10-02T19:32:11.769Z,11.10
2018-10-02T19:34:41.056Z,11.30
2018-10-02T19:37:15.361Z,10.57
2018-10-02T19:39:45.172Z,11.63
2018-10-02T19:42:14.919Z,11.00
2018-10-02T19:44:44.116Z,10.87
2018-10-02T19:47:13.346Z,10.80
2018-10-02T19:49:42.550Z,10.53
2018-10-02T19:52:13.149Z,10.13
2018-10-02T19:54:42.650Z,10.00
2018-10-02T19:57:15.535Z,10.13
2018-10-02T19:59:45.209Z,9.43
2018-10-02T20:02:14.596Z,9.30
2018-10-02T20:04:43.769Z,9.60
2018-10-02T20:07:13.022Z,9.77
2018-10-02T20:09:43.152Z,9.37
2018-10-02T20:12:12.841Z,9.13
2018-10-02T20:14:42.046Z,9.13
2018-10-02T20:17:11.238Z,8.57
2018-10-02T20:19:40.433Z,9.40
2018-10-02T20:22:10.688Z,8.07
2018-10-02T20:24:39.889Z,7.93
2018-10-02T20:27:09.114Z,8.40
2018-10-02T20:29:38.312Z,8.30
2018-10-02T20:32:07.684Z,8.03
2018-10-02T20:34:36.847Z,8.03
2018-10-02T20:37:06.106Z,7.70
2018-10-02T20:39:35.374Z,7.63
2018-10-02T20:42:04.612Z,6.60
2018-10-02T20:44:33.849Z,7.57
2018-10-02T20:47:03.070Z,7.37
2018-10-02T20:49:32.306Z,7.07
2018-10-02T20:52:01.546Z,7.77
2018-10-02T20:54:30.793Z,6.90
2018-10-02T20:56:59.964Z,6.77
2018-10-02T20:59:29.193Z,7.17
2018-10-02T21:01:58.405Z,7.23
2018-10-02T21:04:27.602Z,6.77
2018-10-02T21:06:56.817Z,6.70
2018-10-02T21:09:26.034Z,6.80
2018-10-02T21:11:55.301Z,6.70
2018-10-02T21:14:24.521Z,6.10
2018-10-02T21:16:53.764Z,6.50
2018-10-02T21:19:23.033Z,5.83
2018-10-02T21:21:52.405Z,6.10
2018-10-02T21:24:21.564Z,5.97
2018-10-02T21:26:50.755Z,5.37
2018-10-02T21:29:19.947Z,5.87
2018-10-02T21:31:49.221Z,5.77
2018-10-02T21:34:18.548Z,5.70
2018-10-02T21:36:47.776Z,5.50
2018-10-02T21:39:16.974Z,5.33
2018-10-02T21:41:46.174Z,5.20
2018-10-02T21:44:15.379Z,4.93
2018-10-02T21:46:44.583Z,5.40
2018-10-02T21:49:14.226Z,4.87
2018-10-02T21:51:43.486Z,5.07
2018-10-02T21:54:12.689Z,5.17
2018-10-02T21:56:41.876Z,4.80
2018-10-02T21:59:11.176Z,4.70
2018-10-02T22:01:40.381Z,4.90
2018-10-02T22:04:09.618Z,4.73
2018-10-02T22:06:38.872Z,4.73
2018-10-02T22:09:09.587Z,4.70
2018-10-02T22:11:38.851Z,4.10
2018-10-02T22:14:08.110Z,4.40
2018-10-02T22:16:37.400Z,4.53
2018-10-02T22:19:06.600Z,4.07
2018-10-02T22:21:35.833Z,4.20
2018-10-02T22:24:05.100Z,4.00
2018-10-02T22:26:34.298Z,4.00
2018-10-02T22:29:03.541Z,4.13
2018-10-02T22:31:32.806Z,3.73
2018-10-02T22:34:02.007Z,4.17
2018-10-02T22:36:31.240Z,3.87
2018-10-02T22:39:00.447Z,3.53
2018-10-02T22:41:29.701Z,3.70
2018-10-02T22:43:58.886Z,3.60
2018-10-02T22:46:28.093Z,3.40
2018-10-02T22:48:57.283Z,3.60
2018-10-02T22:51:27.074Z,3.13
2018-10-02T22:53:56.301Z,3.70
2018-10-02T22:56:25.494Z,3.53
2018-10-02T22:58:54.977Z,3.60
2018-10-02T23:01:24.201Z,3.27
2018-10-02T23:03:53.398Z,3.50
2018-10-02T23:06:22.592Z,3.40
2018-10-02T23:08:52.045Z,3.07
2018-10-02T23:11:21.341Z,3.17
2018-10-02T23:14:20.260Z,2.80
2018-10-02T23:16:49.460Z,2.93
2018-10-02T23:19:18.672Z,3.00
2018-10-02T23:21:47.904Z,2.90
2018-10-02T23:24:17.437Z,3.20
2018-10-02T23:26:46.659Z,3.07
2018-10-02T23:29:15.856Z,2.50
2018-10-02T23:31:45.132Z,3.33
2018-10-02T23:34:14.337Z,2.90
2018-10-02T23:36:43.640Z,2.90
2018-10-02T23:39:12.871Z,2.27
2018-10-02T23:41:42.085Z,3.03
2018-10-02T23:44:11.260Z,2.77
2018-10-02T23:46:40.446Z,2.30
2018-10-02T23:49:09.624Z,2.87
2018-10-02T23:51:38.896Z,2.60
2018-10-02T23:54:08.462Z,2.73
2018-10-02T23:56:37.790Z,2.47
2018-10-02T23:59:07.198Z,2.57
